Time;durP1;ratioP1;P1;durP2;ratioP2;P2;SDS_P1;SDS_P2;PMS_P1;PMS_P2;Temp;Humidity;BMP_temperature;BMP_pressure;BME280_temperature;BME280_humidity;BME280_pressure;Samples;Min_cycle;Max_cycle;Signal;HPM_P1;HPM_P2
2022/11/02 00:00:41;;;;;;;55.22;30.35;;;10.90;99.90;;;;;;5018202;28;20048;-60
2022/11/02 00:03:07;;;;;;;57.60;29.30;;;10.90;99.90;;;;;;5019476;28;20026;-57
2022/11/02 00:05:32;;;;;;;58.30;29.85;;;10.90;99.90;;;;;;5021065;28;20029;-57
2022/11/02 00:07:58;;;;;;;54.70;29.27;;;10.80;99.90;;;;;;4985387;28;20025;-57
2022/11/02 00:10:24;;;;;;;53.13;28.92;;;10.90;99.90;;;;;;5019706;28;20036;-60
2022/11/02 00:12:51;;;;;;;52.33;28.77;;;10.90;99.90;;;;;;5020898;28;20384;-57
2022/11/02 00:15:17;;;;;;;49.85;27.48;;;10.80;99.90;;;;;;5001493;28;20030;-58
2022/11/02 00:17:57;;;;;;;49.38;28.38;;;10.80;99.90;;;;;;5019497;28;20049;-57
2022/11/02 00:20:25;;;;;;;49.92;28.17;;;10.80;99.90;;;;;;5018778;28;20034;-57
2022/11/02 00:22:52;;;;;;;56.78;28.13;;;10.80;99.90;;;;;;5018555;28;20533;-57
2022/11/02 00:25:22;;;;;;;56.67;30.52;;;10.80;99.90;;;;;;5020272;28;20076;-59
2022/11/02 00:27:48;;;;;;;55.28;30.08;;;10.80;99.90;;;;;;5020626;28;20545;-57
2022/11/02 00:30:14;;;;;;;58.28;29.75;;;10.90;99.90;;;;;;5018513;28;20105;-57
2022/11/02 00:32:40;;;;;;;55.35;29.70;;;10.90;99.90;;;;;;5019924;28;20045;-57
2022/11/02 00:35:06;;;;;;;54.22;29.80;;;10.90;99.90;;;;;;5020126;28;20107;-56
2022/11/02 00:37:32;;;;;;;52.75;30.17;;;10.90;99.90;;;;;;5018362;28;20022;-59
2022/11/02 00:39:57;;;;;;;61.40;30.10;;;10.90;99.90;;;;;;5019815;28;20029;-60
2022/11/02 00:42:23;;;;;;;59.35;29.98;;;10.90;99.90;;;;;;5019471;28;20480;-58
2022/11/02 00:44:49;;;;;;;56.70;30.60;;;11.00;99.90;;;;;;5010698;28;20120;-57
2022/11/02 00:47:14;;;;;;;59.80;30.27;;;10.90;99.90;;;;;;5010389;28;20093;-57
2022/11/02 00:49:40;;;;;;;49.88;28.55;;;11.00;99.90;;;;;;5010785;28;20025;-58
2022/11/02 00:52:06;;;;;;;57.25;30.40;;;10.90;99.90;;;;;;5010661;28;20108;-60
2022/11/02 00:54:31;;;;;;;54.63;31.45;;;10.90;99.90;;;;;;5010584;28;20081;-60
2022/11/02 00:56:57;;;;;;;59.50;30.15;;;10.90;99.90;;;;;;5010573;28;20516;-59
2022/11/02 00:59:22;;;;;;;54.95;27.77;;;10.90;99.90;;;;;;5010293;28;20037;-58
2022/11/02 01:01:48;;;;;;;56.83;29.10;;;10.90;99.90;;;;;;5010614;28;20033;-59
2022/11/02 01:04:16;;;;;;;51.10;27.98;;;10.90;99.90;;;;;;5010392;28;20487;-58
2022/11/02 01:06:42;;;;;;;52.08;29.77;;;10.80;99.90;;;;;;5010402;28;20030;-58
2022/11/02 01:09:08;;;;;;;53.78;28.70;;;10.80;99.90;;;;;;5010635;28;20088;-61
2022/11/02 01:11:34;;;;;;;59.10;29.90;;;10.80;99.90;;;;;;5010618;28;20380;-59
2022/11/02 01:14:00;;;;;;;57.30;29.55;;;10.70;99.90;;;;;;5010264;28;20439;-59
2022/11/02 01:16:25;;;;;;;56.40;30.35;;;10.70;99.90;;;;;;5010243;28;20105;-57
2022/11/02 01:18:52;;;;;;;56.15;30.52;;;10.70;99.90;;;;;;5010240;28;20041;-58
2022/11/02 01:21:19;;;;;;;62.85;30.63;;;10.70;99.90;;;;;;5010182;28;20030;-57
2022/11/02 01:23:45;;;;;;;54.47;29.83;;;10.70;99.90;;;;;;5010165;28;20033;-59
2022/11/02 01:26:11;;;;;;;56.60;31.55;;;10.70;99.90;;;;;;5010136;28;20053;-59
2022/11/02 01:28:38;;;;;;;52.30;28.85;;;10.60;99.90;;;;;;5009992;28;20408;-60
2022/11/02 01:31:04;;;;;;;56.72;30.55;;;10.60;99.90;;;;;;5010049;28;20030;-58
2022/11/02 01:33:30;;;;;;;51.60;29.67;;;10.60;99.90;;;;;;5009986;28;20049;-58
2022/11/02 01:35:56;;;;;;;62.45;30.85;;;10.60;99.90;;;;;;5009886;28;20538;-58
2022/11/02 01:38:22;;;;;;;60.83;30.02;;;10.60;99.90;;;;;;5009895;28;20461;-58
2022/11/02 01:40:48;;;;;;;54.72;29.60;;;10.50;99.90;;;;;;5010061;28;20053;-58
2022/11/02 01:43:25;;;;;;;53.47;29.40;;;10.50;99.90;;;;;;5000165;28;20026;-60
2022/11/02 01:45:53;;;;;;;;;;;10.50;99.90;;;;;;4990945;28;20505;-60
2022/11/02 01:48:31;;;;;;;56.83;29.00;;;10.50;99.90;;;;;;4990358;28;19905;-57
2022/11/02 01:51:00;;;;;;;55.25;28.13;;;10.50;99.90;;;;;;4992530;28;20106;-59
2022/11/02 01:53:26;;;;;;;55.10;29.45;;;10.50;99.90;;;;;;4994161;28;20049;-57
2022/11/02 01:55:53;;;;;;;58.83;30.90;;;10.50;99.90;;;;;;4994228;28;20085;-56
2022/11/02 01:58:18;;;;;;;58.42;32.05;;;10.50;99.90;;;;;;4994281;28;20026;-57
2022/11/02 02:00:44;;;;;;;58.00;31.23;;;10.50;99.90;;;;;;4994136;28;20117;-58
2022/11/02 02:03:17;;;;;;;63.22;31.58;;;10.50;99.90;;;;;;4994140;28;20462;-58
2022/11/02 02:05:47;;;;;;;54.17;29.30;;;10.40;99.90;;;;;;4994131;28;20089;-58
2022/11/02 02:08:16;;;;;;;60.33;30.50;;;10.40;99.90;;;;;;4994031;28;20030;-58
2022/11/02 02:10:42;;;;;;;59.63;30.90;;;10.40;99.90;;;;;;4994145;28;20037;-57
2022/11/02 02:13:08;;;;;;;65.57;31.48;;;10.40;99.90;;;;;;4993942;28;20026;-59
2022/11/02 02:15:39;;;;;;;65.47;31.45;;;10.40;99.90;;;;;;4994011;28;20034;-57
2022/11/02 02:18:23;;;;;;;63.83;33.08;;;10.40;99.90;;;;;;4976346;28;20031;-59
2022/11/02 02:20:51;;;;;;;66.93;32.15;;;10.40;99.90;;;;;;4993565;28;20069;-58
2022/11/02 02:23:46;;;;;;;60.10;30.73;;;10.30;99.90;;;;;;4993975;28;20026;-59
2022/11/02 02:26:44;;;;;;;64.13;31.92;;;10.30;99.90;;;;;;4993940;28;20026;-57
2022/11/02 02:29:20;;;;;;;63.15;32.20;;;10.20;99.90;;;;;;5003113;28;20030;-59
2022/11/02 02:32:01;;;;;;;62.38;32.45;;;10.20;99.90;;;;;;5013560;28;20021;-58
2022/11/02 02:34:40;;;;;;;63.53;32.53;;;10.20;99.90;;;;;;5024438;28;20056;-57
2022/11/02 02:37:27;;;;;;;65.53;32.35;;;10.20;99.90;;;;;;5015936;28;20385;-58
2022/11/02 02:40:12;;;;;;;64.82;32.83;;;10.20;99.90;;;;;;5013300;28;20041;-59
2022/11/02 02:43:11;;;;;;;61.22;33.05;;;10.20;99.90;;;;;;5012898;28;20036;-58
2022/11/02 02:45:52;;;;;;;66.00;34.03;;;10.20;99.90;;;;;;5012471;28;20030;-57
2022/11/02 02:48:23;;;;;;;69.65;33.78;;;10.10;99.90;;;;;;5006693;28;20541;-57
2022/11/02 02:51:06;;;;;;;69.68;33.95;;;10.10;99.90;;;;;;4993380;28;20031;-59
2022/11/02 02:53:40;;;;;;;73.70;35.17;;;10.00;99.90;;;;;;4993333;28;20038;-59
2022/11/02 02:56:07;;;;;;;73.38;35.08;;;10.00;99.90;;;;;;4993308;28;20034;-57
2022/11/02 02:58:58;;;;;;;71.50;36.25;;;10.00;99.90;;;;;;4993120;28;20027;-59
2022/11/02 03:01:25;;;;;;;78.70;37.60;;;10.00;99.90;;;;;;4992673;28;20045;-56
2022/11/02 03:03:51;;;;;;;77.90;37.45;;;10.00;99.90;;;;;;4992978;28;20030;-59
2022/11/02 03:06:33;;;;;;;78.38;38.30;;;10.10;99.90;;;;;;4992843;28;20037;-60
2022/11/02 03:09:38;;;;;;;82.70;39.10;;;10.10;99.90;;;;;;4992957;28;20031;-60
2022/11/02 03:12:19;;;;;;;85.88;38.13;;;10.00;99.90;;;;;;4992924;28;20442;-59
2022/11/02 03:15:09;;;;;;;77.53;36.50;;;10.00;99.90;;;;;;4992919;28;20058;-60
2022/11/02 03:17:34;;;;;;;79.93;37.78;;;10.00;99.90;;;;;;4992659;28;20030;-59
2022/11/02 03:20:20;;;;;;;80.85;39.08;;;10.00;99.90;;;;;;4992631;28;20038;-58
2022/11/02 03:23:07;;;;;;;84.05;38.75;;;10.00;99.90;;;;;;4992864;28;20034;-59
2022/11/02 03:25:45;;;;;;;90.97;41.08;;;10.10;99.90;;;;;;5002376;28;20453;-61
2022/11/02 03:28:19;;;;;;;79.85;37.70;;;10.10;99.90;;;;;;5000062;28;20474;-57
2022/11/02 03:31:03;;;;;;;83.35;39.15;;;10.10;99.90;;;;;;5005299;28;20084;-60
2022/11/02 03:33:33;;;;;;;80.10;38.30;;;10.10;99.90;;;;;;5016301;28;20046;-58
2022/11/02 03:36:09;;;;;;;80.82;37.58;;;10.10;99.90;;;;;;5020257;28;20112;-58
2022/11/02 03:38:48;;;;;;;83.40;39.10;;;10.00;99.90;;;;;;5020024;28;20149;-60
2022/11/02 03:41:15;;;;;;;77.97;35.75;;;10.10;99.90;;;;;;5019960;28;20030;-60
2022/11/02 03:43:42;;;;;;;;;;;10.10;99.90;;;;;;5020584;28;20108;-59
2022/11/02 03:46:10;;;;;;;81.90;37.17;;;10.10;99.90;;;;;;5026509;28;20348;-60
2022/11/02 03:48:40;;;;;;;73.95;37.13;;;10.10;99.90;;;;;;5021766;28;20030;-56
2022/11/02 03:51:10;;;;;;;76.63;37.72;;;10.10;99.90;;;;;;5018446;28;20113;-60
2022/11/02 03:53:48;;;;;;;85.25;39.22;;;10.10;99.90;;;;;;5020057;28;20521;-60
2022/11/02 03:56:25;;;;;;;81.07;37.95;;;10.10;99.90;;;;;;5002850;28;20428;-61
2022/11/02 03:58:51;;;;;;;79.47;37.63;;;10.10;99.90;;;;;;5018961;28;20370;-62
2022/11/02 04:01:19;;;;;;;82.50;37.30;;;10.10;99.90;;;;;;5019652;28;20040;-60
2022/11/02 04:03:46;;;;;;;76.13;36.10;;;10.10;99.90;;;;;;5017708;28;20072;-60
2022/11/02 04:06:12;;;;;;;80.15;37.55;;;10.10;99.90;;;;;;5020830;28;20034;-61
2022/11/02 04:08:42;;;;;;;83.68;35.85;;;10.10;99.90;;;;;;5021610;28;20033;-61
2022/11/02 04:16:37;;;;;;;79.90;39.38;;;10.10;99.90;;;;;;5020418;28;20109;-59
2022/11/02 04:27:17;;;;;;;87.15;38.80;;;10.10;99.90;;;;;;4979889;28;20040;-57
2022/11/02 04:29:43;;;;;;;83.90;39.45;;;10.10;99.90;;;;;;5019221;28;20029;-59
2022/11/02 04:32:09;;;;;;;90.78;41.40;;;10.20;99.90;;;;;;5020494;28;20099;-57
2022/11/02 04:34:35;;;;;;;89.95;40.00;;;10.10;99.90;;;;;;5020934;28;20033;-59
2022/11/02 04:37:00;;;;;;;80.63;40.03;;;10.20;99.90;;;;;;5019123;28;20425;-58
2022/11/02 04:39:26;;;;;;;79.30;38.30;;;10.20;99.90;;;;;;5020985;28;20069;-60
2022/11/02 04:41:52;;;;;;;75.15;38.50;;;10.20;99.90;;;;;;5020181;28;20101;-60
2022/11/02 04:44:17;;;;;;;83.93;38.67;;;10.20;99.90;;;;;;5019067;28;20091;-59
2022/11/02 04:46:44;;;;;;;76.20;38.00;;;10.20;99.90;;;;;;5020935;28;20614;-56
2022/11/02 04:49:10;;;;;;;91.17;42.87;;;10.10;99.90;;;;;;5002109;28;20610;-58
2022/11/02 04:51:38;;;;;;;79.47;39.75;;;10.20;99.90;;;;;;5019158;28;20029;-59
2022/11/02 04:54:04;;;;;;;88.22;41.00;;;10.20;99.90;;;;;;5016456;28;20227;-57
2022/11/02 04:56:30;;;;;;;99.95;43.88;;;10.10;99.90;;;;;;5020050;28;20018;-58
2022/11/02 04:58:57;;;;;;;104.85;43.70;;;10.10;99.90;;;;;;5020282;28;20029;-57
2022/11/02 05:01:25;;;;;;;101.80;45.42;;;10.10;99.90;;;;;;5016144;28;20022;-59
2022/11/02 05:03:53;;;;;;;96.25;42.13;;;10.10;99.90;;;;;;5019828;28;20472;-58
2022/11/02 05:06:20;;;;;;;93.82;42.30;;;10.10;99.90;;;;;;5020671;28;20037;-60
2022/11/02 05:08:46;;;;;;;92.47;40.40;;;10.10;99.90;;;;;;5018887;28;20069;-59
2022/11/02 05:11:12;;;;;;;101.78;42.35;;;10.10;99.90;;;;;;5019558;28;20453;-59
2022/11/02 05:13:39;;;;;;;101.80;43.28;;;10.10;99.90;;;;;;5020266;28;20393;-58
2022/11/02 05:16:06;;;;;;;93.63;41.60;;;10.10;99.90;;;;;;5016269;28;20026;-58
2022/11/02 05:18:32;;;;;;;96.60;42.70;;;10.10;99.90;;;;;;5019557;28;20041;-60
2022/11/02 05:21:01;;;;;;;91.93;42.22;;;10.00;99.90;;;;;;5020463;28;20097;-58
2022/11/02 05:23:27;;;;;;;81.70;38.20;;;10.00;99.90;;;;;;5017050;28;20040;-58
2022/11/02 05:25:57;;;;;;;79.60;38.22;;;10.00;99.90;;;;;;5021371;28;20409;-59
2022/11/02 05:28:24;;;;;;;92.03;38.67;;;10.00;99.90;;;;;;5018500;28;20052;-58
2022/11/02 05:30:50;;;;;;;87.50;38.42;;;9.90;99.90;;;;;;5009685;28;20081;-57
2022/11/02 05:33:16;;;;;;;83.88;37.88;;;9.90;99.90;;;;;;5008816;28;20437;-59
2022/11/02 05:35:42;;;;;;;86.20;40.03;;;9.90;99.90;;;;;;5009492;28;20500;-59
2022/11/02 05:38:07;;;;;;;82.32;37.88;;;9.90;99.90;;;;;;4975672;28;20022;-58
2022/11/02 05:40:36;;;;;;;85.53;38.13;;;9.90;99.90;;;;;;4991706;28;20042;-59
2022/11/02 05:43:02;;;;;;;87.13;38.03;;;9.90;99.90;;;;;;4991813;28;20113;-58
2022/11/02 05:45:29;;;;;;;78.03;36.78;;;9.90;99.90;;;;;;4997511;28;20077;-60
2022/11/02 05:47:55;;;;;;;85.13;37.72;;;9.80;99.90;;;;;;5020298;28;20488;-60
2022/11/02 05:50:20;;;;;;;78.95;35.38;;;9.80;99.90;;;;;;5009621;28;20041;-59
2022/11/02 05:52:47;;;;;;;89.78;38.92;;;9.80;99.90;;;;;;5009878;28;20049;-58
2022/11/02 05:55:14;;;;;;;75.07;35.42;;;9.80;99.90;;;;;;5009912;28;20045;-61
2022/11/02 05:57:39;;;;;;;88.50;39.17;;;9.80;99.90;;;;;;5009788;28;20022;-61
2022/11/02 06:00:07;;;;;;;98.82;41.08;;;9.80;99.90;;;;;;4992004;28;20045;-61
2022/11/02 06:02:33;;;;;;;86.45;37.00;;;9.80;99.90;;;;;;4991997;28;20025;-57
2022/11/02 06:04:59;;;;;;;97.57;41.95;;;9.90;99.90;;;;;;5009549;28;20025;-61
2022/11/02 06:07:25;;;;;;;106.45;41.40;;;9.90;99.90;;;;;;5009825;28;20030;-59
2022/11/02 06:09:50;;;;;;;104.45;44.28;;;9.80;99.90;;;;;;5009395;28;20410;-59
2022/11/02 06:12:16;;;;;;;119.13;44.78;;;9.90;99.90;;;;;;5009652;28;20026;-58
2022/11/02 06:14:41;;;;;;;122.25;45.17;;;9.90;99.90;;;;;;5009516;28;20436;-58
2022/11/02 06:17:07;;;;;;;130.13;44.85;;;9.90;99.90;;;;;;5008768;28;20111;-58
2022/11/02 06:19:33;;;;;;;109.93;41.90;;;9.90;99.90;;;;;;5009226;28;20079;-60
2022/11/02 06:21:58;;;;;;;150.13;44.33;;;9.90;99.90;;;;;;5009467;28;20030;-61
2022/11/02 06:24:24;;;;;;;115.18;44.28;;;9.90;99.90;;;;;;5009460;28;20037;-59
2022/11/02 06:26:50;;;;;;;165.45;44.50;;;9.90;99.90;;;;;;5008912;28;20029;-58
2022/11/02 06:29:16;;;;;;;132.43;44.10;;;9.90;99.90;;;;;;5007824;28;20574;-59
2022/11/02 06:31:42;;;;;;;199.13;44.85;;;9.90;99.90;;;;;;5008739;28;20105;-61
2022/11/02 06:34:08;;;;;;;157.30;43.25;;;9.90;99.90;;;;;;5008837;28;20054;-59
2022/11/02 06:36:33;;;;;;;133.75;44.67;;;9.90;99.90;;;;;;5010214;28;20480;-61
2022/11/02 06:38:59;;;;;;;239.43;46.47;;;10.00;99.90;;;;;;4975595;28;20041;-57
2022/11/02 06:41:25;;;;;;;131.95;45.58;;;9.90;99.90;;;;;;4993243;28;20365;-58
2022/11/02 06:43:50;;;;;;;252.70;46.60;;;9.90;99.90;;;;;;4993429;28;20452;-60
2022/11/02 06:46:16;;;;;;;171.05;44.60;;;9.90;99.90;;;;;;4993147;28;20030;-59
2022/11/02 06:48:42;;;;;;;290.05;44.50;;;9.90;99.90;;;;;;4993186;28;20026;-62
2022/11/02 06:51:08;;;;;;;113.28;42.78;;;10.00;99.90;;;;;;4993447;28;20030;-59
2022/11/02 06:53:34;;;;;;;200.07;45.78;;;10.00;99.90;;;;;;4993101;28;20484;-62
2022/11/02 06:55:59;;;;;;;111.47;41.47;;;10.10;99.90;;;;;;4992922;28;20526;-59
2022/11/02 06:58:25;;;;;;;134.82;43.95;;;10.10;99.90;;;;;;4993047;28;20041;-58
2022/11/02 07:01:00;;;;;;;223.25;45.55;;;10.10;99.90;;;;;;4992968;28;20398;-58
2022/11/02 07:03:26;;;;;;;198.98;40.00;;;10.10;99.90;;;;;;4992902;28;20022;-60
2022/11/02 07:05:52;;;;;;;149.27;41.67;;;10.00;99.90;;;;;;4992849;28;20049;-57
2022/11/02 07:08:19;;;;;;;163.25;40.78;;;10.00;99.90;;;;;;4993044;28;20025;-60
2022/11/02 07:10:45;;;;;;;231.48;44.67;;;10.00;99.90;;;;;;4992824;28;20034;-59
2022/11/02 07:13:11;;;;;;;202.98;44.33;;;10.00;99.90;;;;;;4975290;28;20450;-58
2022/11/02 07:15:37;;;;;;;142.80;47.75;;;10.00;99.90;;;;;;4992817;28;20089;-60
2022/11/02 07:18:02;;;;;;;196.63;50.17;;;10.10;99.90;;;;;;4992731;28;20030;-60
2022/11/02 07:20:29;;;;;;;187.32;48.60;;;10.10;99.90;;;;;;4992476;28;20064;-60
2022/11/02 07:22:56;;;;;;;172.98;49.42;;;10.10;99.90;;;;;;4992500;28;20025;-58
2022/11/02 07:25:23;;;;;;;177.15;50.60;;;10.20;99.90;;;;;;5005872;28;20413;-58
2022/11/02 07:27:50;;;;;;;188.55;57.60;;;10.20;99.90;;;;;;5012257;28;20049;-59
2022/11/02 07:30:15;;;;;;;181.00;56.40;;;10.20;99.90;;;;;;5011608;28;20034;-60
2022/11/02 07:32:43;;;;;;;177.35;59.60;;;10.30;99.90;;;;;;5011980;28;20045;-59
2022/11/02 07:35:10;;;;;;;171.00;60.92;;;10.40;99.90;;;;;;5011903;28;20034;-60
2022/11/02 07:37:35;;;;;;;;;;;10.40;99.90;;;;;;4994898;28;20501;-58
2022/11/02 07:40:02;;;;;;;151.07;58.17;;;10.50;99.90;;;;;;4994122;28;20381;-57
2022/11/02 07:42:28;;;;;;;150.32;59.33;;;10.60;99.90;;;;;;5012048;28;20054;-59
2022/11/02 07:44:54;;;;;;;144.23;56.75;;;10.60;99.90;;;;;;4994094;28;20084;-58
2022/11/02 07:47:19;;;;;;;133.15;52.80;;;10.70;99.90;;;;;;5011021;28;20029;-59
2022/11/02 07:49:45;;;;;;;137.75;51.00;;;10.70;99.90;;;;;;5010992;28;20057;-60
2022/11/02 07:52:11;;;;;;;131.68;50.92;;;10.70;99.90;;;;;;5011491;28;20026;-59
2022/11/02 07:54:36;;;;;;;126.88;51.58;;;10.80;99.90;;;;;;5011253;28;20030;-59
2022/11/02 07:57:02;;;;;;;132.00;48.85;;;10.80;99.90;;;;;;4993973;28;20527;-59
2022/11/02 07:59:28;;;;;;;126.75;49.80;;;10.80;99.90;;;;;;5011245;28;20034;-60
2022/11/02 08:01:53;;;;;;;124.70;50.85;;;10.80;99.90;;;;;;5011374;28;20031;-62
2022/11/02 08:04:19;;;;;;;119.00;47.88;;;10.80;99.90;;;;;;5011349;28;20588;-60
2022/11/02 08:06:44;;;;;;;130.68;49.97;;;10.90;99.90;;;;;;5003451;28;20032;-59
2022/11/02 08:09:10;;;;;;;140.98;58.05;;;10.80;99.90;;;;;;4983194;28;20037;-60
2022/11/02 08:11:36;;;;;;;167.32;70.65;;;10.90;99.90;;;;;;4999110;28;20014;-61
2022/11/02 08:14:01;;;;;;;130.65;52.90;;;10.80;99.90;;;;;;5001124;28;20401;-59
2022/11/02 08:16:27;;;;;;;125.25;48.42;;;10.80;99.90;;;;;;5000135;28;20026;-60
2022/11/02 08:18:53;;;;;;;151.43;60.55;;;10.90;99.90;;;;;;4999158;28;20037;-61
2022/11/02 08:21:19;;;;;;;233.75;96.25;;;10.80;99.90;;;;;;4998823;28;20037;-59
2022/11/02 08:23:44;;;;;;;155.23;65.13;;;10.90;99.90;;;;;;5000517;28;20037;-59
2022/11/02 08:26:10;;;;;;;144.00;62.38;;;10.90;99.90;;;;;;5000310;28;20023;-61
2022/11/02 08:28:39;;;;;;;112.82;48.75;;;11.10;99.90;;;;;;4998741;28;20101;-59
2022/11/02 08:31:06;;;;;;;95.32;41.90;;;11.20;99.90;;;;;;5000341;28;20026;-61
2022/11/02 08:33:32;;;;;;;91.95;41.92;;;11.20;99.90;;;;;;5000316;28;20129;-59
2022/11/02 08:36:03;;;;;;;91.03;40.25;;;11.30;99.90;;;;;;4998708;28;20061;-59
2022/11/02 08:38:29;;;;;;;79.85;39.20;;;11.30;99.90;;;;;;4999488;28;20022;-59
2022/11/02 08:40:55;;;;;;;94.63;40.08;;;11.40;99.90;;;;;;5000550;28;20054;-61
2022/11/02 08:43:20;;;;;;;87.25;41.97;;;11.40;99.90;;;;;;4998812;28;20046;-60
2022/11/02 08:45:46;;;;;;;83.75;40.58;;;11.40;99.90;;;;;;4999992;28;20560;-60
2022/11/02 08:48:12;;;;;;;82.50;39.38;;;11.50;99.90;;;;;;5000172;28;20355;-63
2022/11/02 08:50:38;;;;;;;87.32;40.42;;;11.40;99.90;;;;;;4998456;28;20022;-61
2022/11/02 08:53:04;;;;;;;92.63;38.28;;;11.40;99.90;;;;;;5000332;28;20358;-62
2022/11/02 08:55:30;;;;;;;86.15;38.60;;;11.10;99.90;;;;;;4982041;28;20042;-61
2022/11/02 08:57:57;;;;;;;93.53;41.63;;;11.40;99.90;;;;;;4998373;28;20061;-63
2022/11/02 09:00:28;;;;;;;89.32;39.70;;;11.30;99.90;;;;;;5000181;28;20034;-61
2022/11/02 09:03:05;;;;;;;91.85;41.72;;;11.30;99.90;;;;;;4999994;28;20018;-62
2022/11/02 09:05:34;;;;;;;93.90;41.20;;;11.30;99.90;;;;;;5000660;28;20045;-59
2022/11/02 09:08:02;;;;;;;89.28;40.20;;;11.40;99.90;;;;;;5000230;28;20565;-60
2022/11/02 09:10:30;;;;;;;96.32;47.10;;;11.30;99.90;;;;;;4999325;28;20045;-61
2022/11/02 09:12:57;;;;;;;97.70;47.03;;;11.30;99.90;;;;;;4998012;28;20030;-60
2022/11/02 09:15:23;;;;;;;76.07;36.80;;;11.40;99.90;;;;;;4999251;28;20018;-60
2022/11/02 09:17:49;;;;;;;74.57;35.72;;;11.50;99.90;;;;;;4990735;28;20053;-61
2022/11/02 09:20:19;;;;;;;76.85;36.53;;;11.70;99.90;;;;;;4990354;28;20038;-60
2022/11/02 09:22:44;;;;;;;72.15;34.25;;;12.10;99.90;;;;;;4990854;28;20130;-60
2022/11/02 09:25:11;;;;;;;79.82;39.95;;;12.60;99.90;;;;;;4990484;28;20115;-61
2022/11/02 09:27:37;;;;;;;71.30;34.67;;;12.40;99.90;;;;;;4990470;28;20442;-61
2022/11/02 09:30:04;;;;;;;62.17;31.10;;;12.50;99.90;;;;;;4990548;28;20360;-60
2022/11/02 09:32:32;;;;;;;55.63;30.65;;;12.80;99.90;;;;;;4990468;28;20045;-59
2022/11/02 09:35:09;;;;;;;55.53;30.70;;;13.00;99.90;;;;;;4973064;28;20401;-60
2022/11/02 09:37:36;;;;;;;61.13;31.02;;;13.30;99.90;;;;;;4990297;28;20041;-66
2022/11/02 09:40:02;;;;;;;67.03;32.30;;;13.30;99.90;;;;;;4990143;28;20046;-59
2022/11/02 09:42:52;;;;;;;61.97;32.40;;;13.50;99.90;;;;;;4973480;28;20018;-64
2022/11/02 09:45:20;;;;;;;61.85;31.50;;;14.10;99.90;;;;;;4990218;28;20038;-62
2022/11/02 09:47:54;;;;;;;54.72;28.30;;;14.50;99.90;;;;;;4990589;28;20034;-60
2022/11/02 09:50:24;;;;;;;48.70;24.33;;;14.80;99.90;;;;;;4990242;28;20117;-65
2022/11/02 09:52:55;;;;;;;44.65;25.17;;;15.20;99.90;;;;;;4990123;28;20031;-62
2022/11/02 09:55:35;;;;;;;42.03;22.95;;;15.60;99.90;;;;;;4990294;28;20031;-64
2022/11/02 09:58:15;;;;;;;44.97;21.52;;;16.30;99.90;;;;;;4990285;28;20034;-62
2022/11/02 10:00:47;;;;;;;37.08;19.23;;;16.80;99.90;;;;;;4990363;28;20109;-63
2022/11/02 10:03:46;;;;;;;34.83;18.85;;;17.00;99.90;;;;;;4990165;28;20019;-65
2022/11/02 10:06:17;;;;;;;32.13;17.35;;;17.00;99.90;;;;;;4972557;28;20397;-62
2022/11/02 10:09:07;;;;;;;30.95;16.45;;;17.00;99.90;;;;;;4990635;28;20026;-63
2022/11/02 10:11:38;;;;;;;34.58;16.80;;;17.30;99.90;;;;;;4990966;28;20165;-59
2022/11/02 10:14:25;;;;;;;25.40;13.98;;;17.00;99.90;;;;;;4993203;28;20066;-61
2022/11/02 10:17:15;;;;;;;25.80;14.77;;;17.70;99.90;;;;;;4989328;28;20033;-59
2022/11/02 10:19:48;;;;;;;24.55;13.23;;;17.90;99.90;;;;;;4995649;28;20472;-58
2022/11/02 10:22:15;;;;;;;27.77;15.48;;;17.10;99.90;;;;;;5013070;28;20092;-55
2022/11/02 10:24:43;;;;;;;27.75;16.25;;;16.50;99.90;;;;;;5013308;28;20030;-59
2022/11/02 10:27:25;;;;;;;24.63;14.23;;;16.50;99.90;;;;;;5012985;28;20125;-60
2022/11/02 10:29:59;;;;;;;20.63;11.55;;;16.50;99.90;;;;;;5013081;28;20025;-59
2022/11/02 10:32:25;;;;;;;21.25;10.40;;;16.00;99.90;;;;;;5012939;28;20129;-60
2022/11/02 10:34:51;;;;;;;15.35;9.27;;;16.10;99.90;;;;;;5013309;28;20432;-59
2022/11/02 10:37:17;;;;;;;19.33;9.80;;;16.20;99.90;;;;;;5012760;28;20042;-56
2022/11/02 10:40:12;;;;;;;17.58;9.57;;;16.70;99.90;;;;;;5003102;28;20296;-58
2022/11/02 10:43:15;;;;;;;17.15;10.20;;;17.40;99.90;;;;;;5002862;28;20041;-58
2022/11/02 10:45:44;;;;;;;19.65;10.30;;;17.30;99.90;;;;;;5003399;28;20390;-56
2022/11/02 10:48:29;;;;;;;19.02;10.23;;;17.20;99.90;;;;;;5002011;28;20041;-60
2022/11/02 10:51:14;;;;;;;15.57;8.20;;;17.90;99.90;;;;;;5002799;28;20022;-58
2022/11/02 10:53:45;;;;;;;15.27;8.27;;;17.50;99.90;;;;;;5003092;28;20085;-60
2022/11/02 10:56:19;;;;;;;15.15;8.13;;;17.90;99.90;;;;;;4992136;28;20113;-59
2022/11/02 10:59:01;;;;;;;17.88;9.55;;;17.50;99.90;;;;;;5012640;28;20068;-59
2022/11/02 11:01:28;;;;;;;22.02;12.48;;;17.80;99.90;;;;;;5012324;28;20481;-57
2022/11/02 11:04:03;;;;;;;25.67;14.95;;;17.70;99.90;;;;;;5012467;28;20033;-57
2022/11/02 11:06:35;;;;;;;31.20;15.27;;;17.90;99.90;;;;;;5008588;28;20784;-58
2022/11/02 11:09:21;;;;;;;30.55;13.68;;;17.60;99.90;;;;;;4992856;28;20022;-56
2022/11/02 11:11:57;;;;;;;25.25;12.50;;;18.40;99.90;;;;;;5000854;28;20051;-57
2022/11/02 11:14:26;;;;;;;23.77;13.55;;;18.40;99.90;;;;;;5002438;28;20026;-56
2022/11/02 11:16:56;;;;;;;20.30;11.02;;;18.30;99.90;;;;;;5002120;28;20532;-57
2022/11/02 11:19:22;;;;;;;18.30;9.63;;;18.80;99.90;;;;;;5001031;28;20030;-58
2022/11/02 11:21:49;;;;;;;23.08;9.10;;;17.80;99.90;;;;;;5000219;28;20141;-58
2022/11/02 11:24:24;;;;;;;17.17;9.25;;;17.50;99.90;;;;;;4998522;28;20026;-59
2022/11/02 11:27:05;;;;;;;19.83;9.73;;;17.40;99.90;;;;;;4992667;28;20485;-59
2022/11/02 11:29:37;;;;;;;19.35;10.90;;;17.50;99.90;;;;;;4992448;28;20054;-57
2022/11/02 11:32:03;;;;;;;23.00;10.98;;;17.50;99.90;;;;;;4992368;28;20018;-58
2022/11/02 11:34:31;;;;;;;19.60;10.77;;;18.00;99.90;;;;;;4973853;28;20088;-56
2022/11/02 11:37:11;;;;;;;15.20;8.80;;;18.60;99.90;;;;;;4992264;28;20026;-56
2022/11/02 11:39:43;;;;;;;15.65;7.75;;;18.70;99.90;;;;;;4991171;28;20058;-57
2022/11/02 11:42:25;;;;;;;10.30;6.70;;;19.10;99.90;;;;;;4992660;28;20018;-58
2022/11/02 11:45:04;;;;;;;14.25;7.75;;;19.20;99.90;;;;;;4991588;28;20034;-59
2022/11/02 11:47:36;;;;;;;16.63;8.57;;;19.40;99.90;;;;;;4991210;28;20161;-56
2022/11/02 11:50:05;;;;;;;13.63;8.00;;;19.40;99.90;;;;;;4990877;28;20033;-58
2022/11/02 11:52:32;;;;;;;16.58;8.20;;;19.70;99.90;;;;;;4991104;28;20034;-57
2022/11/02 11:55:17;;;;;;;;;;;19.60;99.90;;;;;;4991546;28;20046;-58
2022/11/02 11:57:43;;;;;;;15.40;8.50;;;19.50;99.90;;;;;;4991230;28;19913;-58
2022/11/02 12:00:29;;;;;;;14.93;7.82;;;19.70;99.90;;;;;;4991602;28;20042;-57
2022/11/02 12:03:04;;;;;;;14.32;8.18;;;19.30;99.90;;;;;;4991605;28;20516;-58
2022/11/02 12:05:36;;;;;;;12.27;7.00;;;18.10;99.90;;;;;;4991936;28;20068;-58
2022/11/02 12:08:13;;;;;;;13.45;7.53;;;18.00;99.90;;;;;;4991867;28;20026;-58
2022/11/02 12:11:06;;;;;;;13.40;7.30;;;18.20;99.90;;;;;;4992073;28;20029;-57
2022/11/02 12:13:52;;;;;;;15.10;7.80;;;18.20;99.90;;;;;;4974229;28;20030;-58
2022/11/02 12:16:23;;;;;;;11.25;7.00;;;19.20;99.90;;;;;;4991724;28;20061;-58
2022/11/02 12:19:00;;;;;;;14.00;7.28;;;19.70;98.90;;;;;;4991777;28;20045;-58
2022/11/02 12:21:43;;;;;;;16.27;7.57;;;20.50;97.30;;;;;;4991757;28;20062;-57
2022/11/02 12:24:18;;;;;;;9.68;6.45;;;21.70;94.90;;;;;;5000741;28;20080;-56
2022/11/02 12:26:56;;;;;;;14.88;7.78;;;20.90;92.60;;;;;;5009893;28;20484;-57
2022/11/02 12:29:34;;;;;;;;;;;20.50;94.90;;;;;;5010000;28;20504;-56
2022/11/02 12:32:34;;;;;;;18.35;8.73;;;20.30;96.90;;;;;;4991275;28;20059;-58
2022/11/02 12:35:19;;;;;;;14.48;7.45;;;20.20;96.40;;;;;;4990453;28;20038;-57
2022/11/02 12:37:59;;;;;;;12.60;6.25;;;20.00;96.90;;;;;;4991205;28;20508;-58
2022/11/02 12:40:31;;;;;;;13.20;7.35;;;19.80;97.80;;;;;;4981226;28;20080;-56
2022/11/02 12:43:05;;;;;;;13.23;7.05;;;19.90;97.70;;;;;;5006374;28;20405;-55
2022/11/02 12:45:50;;;;;;;13.68;7.00;;;19.70;97.70;;;;;;5010747;28;20096;-57
2022/11/02 12:48:28;;;;;;;12.27;6.55;;;19.60;98.40;;;;;;5009436;28;20397;-55
2022/11/02 12:51:23;;;;;;;;;;;19.70;98.40;;;;;;4994140;28;20022;-57
2022/11/02 12:53:59;;;;;;;14.48;6.68;;;19.60;97.80;;;;;;4977830;28;19905;-58
2022/11/02 12:56:40;;;;;;;12.05;6.95;;;19.10;98.60;;;;;;4993001;28;20113;-56
2022/11/02 12:59:18;;;;;;;17.13;8.85;;;19.00;99.50;;;;;;4990179;28;20041;-58
2022/11/02 13:01:46;;;;;;;;;;;19.00;99.90;;;;;;5009932;28;20201;-57